Hunters, Washington
Current Conditions -  °F | °C
As of 10:53 PM on Thursday 18 Dec 2014 (Local Time) from KDEW Reporting Station
Overcast Overcast  
Wind Chill: 33°   Ceiling: 3700
Heat Index: 37°   Visibility: 10mi
Dew Point: 36°   Wind: 5mph
Humidity: 96%   Direction: 40°NE
Pressure: 29.94"   Gusts: NA
Location:  48.12°N, 118.2°W
Report Text: KDEW 190653Z AUTO 04004KT 10SM OVC037 03/02 A2994 RMK AO2 UPE23RAB06E16 SLP153 P0001 I1000 T00280022
Loading
Personal Weather Stations






























Interactive Weather Map New forecast layout! Learn more

10-Day Weather Forecast

Advertisements
Track Severe Weather on mobile